sensor_id;sensor_type;location;lat;lon;timestamp;temperature;humidity
2825;DHT22;1420;51.324;12.344;2023-04-27T00:01:18;2.00;99.90
2825;DHT22;1420;51.324;12.344;2023-04-27T00:03:46;2.00;99.90
2825;DHT22;1420;51.324;12.344;2023-04-27T00:06:13;2.00;99.90
2825;DHT22;1420;51.324;12.344;2023-04-27T00:08:40;2.10;99.90
2825;DHT22;1420;51.324;12.344;2023-04-27T00:11:07;2.10;99.90
2825;DHT22;1420;51.324;12.344;2023-04-27T00:13:35;2.10;99.90
2825;DHT22;1420;51.324;12.344;2023-04-27T00:16:03;2.00;99.90
2825;DHT22;1420;51.324;12.344;2023-04-27T00:18:31;2.00;99.90
2825;DHT22;1420;51.324;12.344;2023-04-27T00:20:59;1.90;99.90
2825;DHT22;1420;51.324;12.344;2023-04-27T00:23:26;1.90;99.90
2825;DHT22;1420;51.324;12.344;2023-04-27T00:25:54;1.90;99.90
2825;DHT22;1420;51.324;12.344;2023-04-27T00:28:21;1.80;99.90
2825;DHT22;1420;51.324;12.344;2023-04-27T00:30:48;1.70;99.90
2825;DHT22;1420;51.324;12.344;2023-04-27T00:33:16;1.80;99.90
2825;DHT22;1420;51.324;12.344;2023-04-27T00:35:44;1.70;99.90
2825;DHT22;1420;51.324;12.344;2023-04-27T00:38:11;1.70;99.90
2825;DHT22;1420;51.324;12.344;2023-04-27T00:40:38;1.60;99.90
2825;DHT22;1420;51.324;12.344;2023-04-27T00:43:06;1.50;99.90
2825;DHT22;1420;51.324;12.344;2023-04-27T00:45:40;1.50;99.90
2825;DHT22;1420;51.324;12.344;2023-04-27T00:48:04;1.50;99.90
2825;DHT22;1420;51.324;12.344;2023-04-27T00:50:32;1.70;99.90
2825;DHT22;1420;51.324;12.344;2023-04-27T00:53:00;1.70;99.90
2825;DHT22;1420;51.324;12.344;2023-04-27T00:55:28;1.70;99.90
2825;DHT22;1420;51.324;12.344;2023-04-27T00:57:55;1.70;99.90
2825;DHT22;1420;51.324;12.344;2023-04-27T01:00:22;1.70;99.90
2825;DHT22;1420;51.324;12.344;2023-04-27T01:02:50;1.70;99.90
2825;DHT22;1420;51.324;12.344;2023-04-27T01:05:18;1.70;99.90
2825;DHT22;1420;51.324;12.344;2023-04-27T01:07:45;1.80;99.90
2825;DHT22;1420;51.324;12.344;2023-04-27T01:10:12;1.90;99.90
2825;DHT22;1420;51.324;12.344;2023-04-27T01:12:39;2.00;99.90
2825;DHT22;1420;51.324;12.344;2023-04-27T01:15:08;2.00;99.90
2825;DHT22;1420;51.324;12.344;2023-04-27T01:17:36;2.00;99.90
2825;DHT22;1420;51.324;12.344;2023-04-27T01:20:04;1.90;99.90
2825;DHT22;1420;51.324;12.344;2023-04-27T01:22:32;1.90;99.90
2825;DHT22;1420;51.324;12.344;2023-04-27T01:25:00;2.00;99.90
2825;DHT22;1420;51.324;12.344;2023-04-27T01:27:28;1.90;99.90
2825;DHT22;1420;51.324;12.344;2023-04-27T01:29:55;1.90;99.90
2825;DHT22;1420;51.324;12.344;2023-04-27T01:32:22;1.90;99.90
2825;DHT22;1420;51.324;12.344;2023-04-27T01:34:50;1.90;99.90
2825;DHT22;1420;51.324;12.344;2023-04-27T01:37:17;1.80;99.90
2825;DHT22;1420;51.324;12.344;2023-04-27T01:39:44;1.80;99.90
2825;DHT22;1420;51.324;12.344;2023-04-27T01:42:12;1.70;99.90
2825;DHT22;1420;51.324;12.344;2023-04-27T01:44:40;1.80;99.90
2825;DHT22;1420;51.324;12.344;2023-04-27T01:47:07;1.70;99.90
2825;DHT22;1420;51.324;12.344;2023-04-27T01:49:35;1.70;99.90
2825;DHT22;1420;51.324;12.344;2023-04-27T01:52:03;1.60;99.90
2825;DHT22;1420;51.324;12.344;2023-04-27T01:54:30;1.70;99.90
2825;DHT22;1420;51.324;12.344;2023-04-27T01:56:57;1.70;99.90
2825;DHT22;1420;51.324;12.344;2023-04-27T01:59:24;1.70;99.90
2825;DHT22;1420;51.324;12.344;2023-04-27T02:01:52;1.60;99.90
2825;DHT22;1420;51.324;12.344;2023-04-27T02:04:19;1.60;99.90
2825;DHT22;1420;51.324;12.344;2023-04-27T02:06:47;1.60;99.90
2825;DHT22;1420;51.324;12.344;2023-04-27T02:09:15;1.50;99.90
2825;DHT22;1420;51.324;12.344;2023-04-27T02:11:42;1.50;99.90
2825;DHT22;1420;51.324;12.344;2023-04-27T02:14:09;1.50;99.90
2825;DHT22;1420;51.324;12.344;2023-04-27T02:16:36;1.50;99.90
2825;DHT22;1420;51.324;12.344;2023-04-27T02:19:04;1.50;99.90
2825;DHT22;1420;51.324;12.344;2023-04-27T02:21:31;1.40;99.90
2825;DHT22;1420;51.324;12.344;2023-04-27T02:23:58;1.40;99.90
2825;DHT22;1420;51.324;12.344;2023-04-27T02:26:26;1.30;99.90
2825;DHT22;1420;51.324;12.344;2023-04-27T02:28:55;1.30;99.90
2825;DHT22;1420;51.324;12.344;2023-04-27T02:31:23;1.20;99.90
2825;DHT22;1420;51.324;12.344;2023-04-27T02:33:51;1.20;99.90
2825;DHT22;1420;51.324;12.344;2023-04-27T02:36:18;1.20;99.90
2825;DHT22;1420;51.324;12.344;2023-04-27T02:38:45;1.20;99.90
2825;DHT22;1420;51.324;12.344;2023-04-27T02:41:12;1.30;99.90
2825;DHT22;1420;51.324;12.344;2023-04-27T02:43:39;1.30;99.90
2825;DHT22;1420;51.324;12.344;2023-04-27T02:46:07;1.20;99.90
2825;DHT22;1420;51.324;12.344;2023-04-27T02:48:35;1.20;99.90
2825;DHT22;1420;51.324;12.344;2023-04-27T02:51:02;1.10;99.90
2825;DHT22;1420;51.324;12.344;2023-04-27T02:53:31;1.20;99.90
2825;DHT22;1420;51.324;12.344;2023-04-27T02:56:02;1.20;99.90
2825;DHT22;1420;51.324;12.344;2023-04-27T02:58:29;1.10;99.90
2825;DHT22;1420;51.324;12.344;2023-04-27T03:00:56;1.20;99.90
2825;DHT22;1420;51.324;12.344;2023-04-27T03:03:23;1.20;99.90
2825;DHT22;1420;51.324;12.344;2023-04-27T03:05:51;1.10;99.90
2825;DHT22;1420;51.324;12.344;2023-04-27T03:08:18;1.20;99.90
2825;DHT22;1420;51.324;12.344;2023-04-27T03:10:45;1.20;99.90
2825;DHT22;1420;51.324;12.344;2023-04-27T03:13:13;1.20;99.90
2825;DHT22;1420;51.324;12.344;2023-04-27T03:15:41;1.20;99.90
2825;DHT22;1420;51.324;12.344;2023-04-27T03:18:08;1.20;99.90
2825;DHT22;1420;51.324;12.344;2023-04-27T03:20:36;1.30;99.90
2825;DHT22;1420;51.324;12.344;2023-04-27T03:23:03;1.20;99.90
2825;DHT22;1420;51.324;12.344;2023-04-27T03:25:30;1.20;99.90
2825;DHT22;1420;51.324;12.344;2023-04-27T03:27:58;1.20;99.90
2825;DHT22;1420;51.324;12.344;2023-04-27T03:30:25;1.20;99.90
2825;DHT22;1420;51.324;12.344;2023-04-27T03:32:52;1.20;99.90
2825;DHT22;1420;51.324;12.344;2023-04-27T03:35:19;1.20;99.90
2825;DHT22;1420;51.324;12.344;2023-04-27T03:37:47;1.20;99.90
2825;DHT22;1420;51.324;12.344;2023-04-27T03:40:14;1.20;99.90
2825;DHT22;1420;51.324;12.344;2023-04-27T03:42:42;1.20;99.90
2825;DHT22;1420;51.324;12.344;2023-04-27T03:45:09;1.10;99.90
2825;DHT22;1420;51.324;12.344;2023-04-27T03:47:36;1.20;99.90
2825;DHT22;1420;51.324;12.344;2023-04-27T03:50:04;1.20;99.90
2825;DHT22;1420;51.324;12.344;2023-04-27T03:52:31;1.20;99.90
2825;DHT22;1420;51.324;12.344;2023-04-27T03:54:58;1.10;99.90
2825;DHT22;1420;51.324;12.344;2023-04-27T03:57:26;1.10;99.90
2825;DHT22;1420;51.324;12.344;2023-04-27T03:59:53;1.10;99.90
2825;DHT22;1420;51.324;12.344;2023-04-27T04:02:20;1.10;99.90
2825;DHT22;1420;51.324;12.344;2023-04-27T04:04:48;1.20;99.90
2825;DHT22;1420;51.324;12.344;2023-04-27T04:07:14;1.30;99.90
2825;DHT22;1420;51.324;12.344;2023-04-27T04:09:43;1.40;99.90
2825;DHT22;1420;51.324;12.344;2023-04-27T04:12:09;1.50;99.90
2825;DHT22;1420;51.324;12.344;2023-04-27T04:14:37;1.60;99.90
2825;DHT22;1420;51.324;12.344;2023-04-27T04:17:05;1.60;99.90
2825;DHT22;1420;51.324;12.344;2023-04-27T04:19:32;1.60;99.90
2825;DHT22;1420;51.324;12.344;2023-04-27T04:21:59;1.80;99.90
2825;DHT22;1420;51.324;12.344;2023-04-27T04:24:27;1.90;99.90
2825;DHT22;1420;51.324;12.344;2023-04-27T04:26:54;1.90;99.90
2825;DHT22;1420;51.324;12.344;2023-04-27T04:29:21;2.00;99.90
2825;DHT22;1420;51.324;12.344;2023-04-27T04:31:48;2.00;99.90
2825;DHT22;1420;51.324;12.344;2023-04-27T04:34:15;2.20;99.90
2825;DHT22;1420;51.324;12.344;2023-04-27T04:36:43;2.10;99.90
2825;DHT22;1420;51.324;12.344;2023-04-27T04:39:11;2.10;99.90
2825;DHT22;1420;51.324;12.344;2023-04-27T04:41:38;2.20;99.90
2825;DHT22;1420;51.324;12.344;2023-04-27T04:44:05;2.30;99.90
2825;DHT22;1420;51.324;12.344;2023-04-27T04:46:33;2.30;99.90
2825;DHT22;1420;51.324;12.344;2023-04-27T04:49:00;2.30;99.90
2825;DHT22;1420;51.324;12.344;2023-04-27T04:51:27;2.30;99.90
2825;DHT22;1420;51.324;12.344;2023-04-27T04:53:54;2.30;99.90
2825;DHT22;1420;51.324;12.344;2023-04-27T04:56:22;2.40;99.90
2825;DHT22;1420;51.324;12.344;2023-04-27T04:58:49;2.60;99.90
2825;DHT22;1420;51.324;12.344;2023-04-27T05:01:17;2.90;99.90
2825;DHT22;1420;51.324;12.344;2023-04-27T05:03:44;2.80;99.90
2825;DHT22;1420;51.324;12.344;2023-04-27T05:06:11;3.00;99.90
2825;DHT22;1420;51.324;12.344;2023-04-27T05:08:38;3.20;99.90
2825;DHT22;1420;51.324;12.344;2023-04-27T05:11:06;3.30;99.90
2825;DHT22;1420;51.324;12.344;2023-04-27T05:13:33;3.30;99.90
2825;DHT22;1420;51.324;12.344;2023-04-27T05:16:03;3.40;99.90
2825;DHT22;1420;51.324;12.344;2023-04-27T05:18:30;3.40;99.90
2825;DHT22;1420;51.324;12.344;2023-04-27T05:20:57;3.40;99.90
2825;DHT22;1420;51.324;12.344;2023-04-27T05:23:25;3.50;99.90
2825;DHT22;1420;51.324;12.344;2023-04-27T05:25:53;3.40;99.90
2825;DHT22;1420;51.324;12.344;2023-04-27T05:28:20;3.60;99.90
2825;DHT22;1420;51.324;12.344;2023-04-27T05:30:47;3.60;99.90
2825;DHT22;1420;51.324;12.344;2023-04-27T05:33:14;3.70;99.90
2825;DHT22;1420;51.324;12.344;2023-04-27T05:35:42;3.80;99.90
2825;DHT22;1420;51.324;12.344;2023-04-27T05:38:10;4.10;99.90
2825;DHT22;1420;51.324;12.344;2023-04-27T05:40:37;4.00;99.90
2825;DHT22;1420;51.324;12.344;2023-04-27T05:43:05;4.50;99.90
2825;DHT22;1420;51.324;12.344;2023-04-27T05:45:32;4.50;99.90
2825;DHT22;1420;51.324;12.344;2023-04-27T05:47:59;4.70;99.90
2825;DHT22;1420;51.324;12.344;2023-04-27T05:50:26;4.90;99.90
2825;DHT22;1420;51.324;12.344;2023-04-27T05:52:54;4.70;99.90
2825;DHT22;1420;51.324;12.344;2023-04-27T05:55:21;5.10;99.90
2825;DHT22;1420;51.324;12.344;2023-04-27T05:57:48;5.40;99.90
2825;DHT22;1420;51.324;12.344;2023-04-27T06:00:16;5.60;99.90
2825;DHT22;1420;51.324;12.344;2023-04-27T06:02:44;6.30;99.90
2825;DHT22;1420;51.324;12.344;2023-04-27T06:05:11;6.30;99.90
2825;DHT22;1420;51.324;12.344;2023-04-27T06:07:41;6.60;99.90
2825;DHT22;1420;51.324;12.344;2023-04-27T06:10:14;6.90;99.90
2825;DHT22;1420;51.324;12.344;2023-04-27T06:12:42;7.00;99.90
2825;DHT22;1420;51.324;12.344;2023-04-27T06:15:10;7.00;99.90
2825;DHT22;1420;51.324;12.344;2023-04-27T06:17:37;7.20;99.90
2825;DHT22;1420;51.324;12.344;2023-04-27T06:20:05;7.40;99.90
2825;DHT22;1420;51.324;12.344;2023-04-27T06:22:32;7.80;99.90
2825;DHT22;1420;51.324;12.344;2023-04-27T06:24:59;8.20;99.90
2825;DHT22;1420;51.324;12.344;2023-04-27T06:27:26;8.20;99.90
2825;DHT22;1420;51.324;12.344;2023-04-27T06:29:54;8.80;99.90
2825;DHT22;1420;51.324;12.344;2023-04-27T06:32:21;9.60;99.90
2825;DHT22;1420;51.324;12.344;2023-04-27T06:34:48;10.00;99.90
2825;DHT22;1420;51.324;12.344;2023-04-27T06:37:15;10.20;99.90
2825;DHT22;1420;51.324;12.344;2023-04-27T06:39:43;11.00;99.90
2825;DHT22;1420;51.324;12.344;2023-04-27T06:42:11;11.00;99.90
2825;DHT22;1420;51.324;12.344;2023-04-27T06:44:38;11.30;95.30
2825;DHT22;1420;51.324;12.344;2023-04-27T06:47:05;11.10;93.10
2825;DHT22;1420;51.324;12.344;2023-04-27T06:49:32;11.60;93.20
2825;DHT22;1420;51.324;12.344;2023-04-27T06:52:00;12.30;87.80
2825;DHT22;1420;51.324;12.344;2023-04-27T06:54:27;12.10;91.80
2825;DHT22;1420;51.324;12.344;2023-04-27T06:56:54;12.30;84.60
2825;DHT22;1420;51.324;12.344;2023-04-27T06:59:21;12.00;84.60
2825;DHT22;1420;51.324;12.344;2023-04-27T07:01:49;12.40;86.90
2825;DHT22;1420;51.324;12.344;2023-04-27T07:04:16;12.90;80.70
2825;DHT22;1420;51.324;12.344;2023-04-27T07:06:43;12.60;79.40
2825;DHT22;1420;51.324;12.344;2023-04-27T07:09:11;13.40;78.20
2825;DHT22;1420;51.324;12.344;2023-04-27T07:11:38;12.60;79.20
2825;DHT22;1420;51.324;12.344;2023-04-27T07:14:05;11.90;77.30
2825;DHT22;1420;51.324;12.344;2023-04-27T07:16:33;11.70;78.30
2825;DHT22;1420;51.324;12.344;2023-04-27T07:19:00;11.10;79.30
2825;DHT22;1420;51.324;12.344;2023-04-27T07:21:28;10.80;78.80
2825;DHT22;1420;51.324;12.344;2023-04-27T07:23:55;10.50;79.60
2825;DHT22;1420;51.324;12.344;2023-04-27T07:26:22;10.50;82.90
2825;DHT22;1420;51.324;12.344;2023-04-27T07:28:50;10.30;85.60
2825;DHT22;1420;51.324;12.344;2023-04-27T07:31:17;10.20;85.50
2825;DHT22;1420;51.324;12.344;2023-04-27T07:33:45;10.60;84.20
2825;DHT22;1420;51.324;12.344;2023-04-27T07:36:12;10.40;83.20
2825;DHT22;1420;51.324;12.344;2023-04-27T07:38:39;10.40;86.30
2825;DHT22;1420;51.324;12.344;2023-04-27T07:41:06;10.10;84.80
2825;DHT22;1420;51.324;12.344;2023-04-27T07:43:33;10.50;86.40
2825;DHT22;1420;51.324;12.344;2023-04-27T07:46:01;10.60;87.90
2825;DHT22;1420;51.324;12.344;2023-04-27T07:48:28;10.70;84.60
2825;DHT22;1420;51.324;12.344;2023-04-27T07:50:55;10.40;87.50
2825;DHT22;1420;51.324;12.344;2023-04-27T07:53:22;10.50;82.60
2825;DHT22;1420;51.324;12.344;2023-04-27T07:55:50;10.40;85.30
2825;DHT22;1420;51.324;12.344;2023-04-27T07:58:18;10.30;85.20
2825;DHT22;1420;51.324;12.344;2023-04-27T08:00:45;10.40;83.20
2825;DHT22;1420;51.324;12.344;2023-04-27T08:03:12;10.10;84.60
2825;DHT22;1420;51.324;12.344;2023-04-27T08:05:40;10.40;86.10
2825;DHT22;1420;51.324;12.344;2023-04-27T08:08:07;10.30;86.00
2825;DHT22;1420;51.324;12.344;2023-04-27T08:10:35;10.90;82.90
2825;DHT22;1420;51.324;12.344;2023-04-27T08:13:03;10.90;82.10
2825;DHT22;1420;51.324;12.344;2023-04-27T08:15:30;10.80;81.90
2825;DHT22;1420;51.324;12.344;2023-04-27T08:17:57;11.00;83.30
2825;DHT22;1420;51.324;12.344;2023-04-27T08:20:24;10.90;80.30
2825;DHT22;1420;51.324;12.344;2023-04-27T08:22:52;10.60;79.30
2825;DHT22;1420;51.324;12.344;2023-04-27T08:25:19;10.50;81.30
2825;DHT22;1420;51.324;12.344;2023-04-27T08:27:46;10.50;81.50
2825;DHT22;1420;51.324;12.344;2023-04-27T08:30:13;10.40;81.10
2825;DHT22;1420;51.324;12.344;2023-04-27T08:32:41;10.80;79.10
2825;DHT22;1420;51.324;12.344;2023-04-27T08:35:08;11.20;78.80
2825;DHT22;1420;51.324;12.344;2023-04-27T08:37:35;11.20;76.90
2825;DHT22;1420;51.324;12.344;2023-04-27T08:40:04;10.90;77.40
2825;DHT22;1420;51.324;12.344;2023-04-27T08:42:31;10.60;77.20
2825;DHT22;1420;51.324;12.344;2023-04-27T08:44:58;11.50;75.90
2825;DHT22;1420;51.324;12.344;2023-04-27T08:47:26;11.70;75.30
2825;DHT22;1420;51.324;12.344;2023-04-27T08:49:53;11.70;75.30
2825;DHT22;1420;51.324;12.344;2023-04-27T08:52:20;12.60;72.60
2825;DHT22;1420;51.324;12.344;2023-04-27T08:54:47;13.20;70.40
2825;DHT22;1420;51.324;12.344;2023-04-27T08:57:15;12.80;67.90
2825;DHT22;1420;51.324;12.344;2023-04-27T08:59:43;12.70;67.80
2825;DHT22;1420;51.324;12.344;2023-04-27T09:02:18;13.20;67.20
2825;DHT22;1420;51.324;12.344;2023-04-27T09:04:45;13.90;65.80
2825;DHT22;1420;51.324;12.344;2023-04-27T09:07:13;13.80;65.30
2825;DHT22;1420;51.324;12.344;2023-04-27T09:09:40;13.70;60.40
2825;DHT22;1420;51.324;12.344;2023-04-27T09:12:17;13.30;63.60
2825;DHT22;1420;51.324;12.344;2023-04-27T09:15:00;15.50;62.80
2825;DHT22;1420;51.324;12.344;2023-04-27T09:17:27;15.50;62.50
2825;DHT22;1420;51.324;12.344;2023-04-27T09:20:03;14.30;57.90
2825;DHT22;1420;51.324;12.344;2023-04-27T09:22:30;14.20;57.90
2825;DHT22;1420;51.324;12.344;2023-04-27T09:24:58;15.00;57.50
2825;DHT22;1420;51.324;12.344;2023-04-27T09:27:26;15.90;54.60
2825;DHT22;1420;51.324;12.344;2023-04-27T09:29:54;15.90;54.60
2825;DHT22;1420;51.324;12.344;2023-04-27T09:32:21;15.10;53.20
2825;DHT22;1420;51.324;12.344;2023-04-27T09:34:49;15.50;54.30
2825;DHT22;1420;51.324;12.344;2023-04-27T09:37:17;15.00;52.30
2825;DHT22;1420;51.324;12.344;2023-04-27T09:39:44;15.00;52.30
2825;DHT22;1420;51.324;12.344;2023-04-27T09:42:11;15.20;51.70
2825;DHT22;1420;51.324;12.344;2023-04-27T09:44:38;15.00;49.50
2825;DHT22;1420;51.324;12.344;2023-04-27T09:47:06;14.60;52.10
2825;DHT22;1420;51.324;12.344;2023-04-27T09:49:33;14.60;52.10
2825;DHT22;1420;51.324;12.344;2023-04-27T09:52:01;13.60;51.80
2825;DHT22;1420;51.324;12.344;2023-04-27T09:54:28;13.30;53.00
2825;DHT22;1420;51.324;12.344;2023-04-27T09:56:59;13.00;54.80
2825;DHT22;1420;51.324;12.344;2023-04-27T09:59:34;13.00;54.90
2825;DHT22;1420;51.324;12.344;2023-04-27T10:01:58;12.70;55.40
2825;DHT22;1420;51.324;12.344;2023-04-27T10:04:43;12.70;55.40
2825;DHT22;1420;51.324;12.344;2023-04-27T10:07:08;12.40;54.60
2825;DHT22;1420;51.324;12.344;2023-04-27T10:09:49;12.30;54.50
2825;DHT22;1420;51.324;12.344;2023-04-27T10:12:19;12.40;55.50
2825;DHT22;1420;51.324;12.344;2023-04-27T10:14:52;14.60;53.50
2825;DHT22;1420;51.324;12.344;2023-04-27T10:17:24;14.50;54.00
2825;DHT22;1420;51.324;12.344;2023-04-27T10:20:00;14.20;52.50
2825;DHT22;1420;51.324;12.344;2023-04-27T10:22:36;14.00;51.90
2825;DHT22;1420;51.324;12.344;2023-04-27T10:25:11;14.80;51.00
2825;DHT22;1420;51.324;12.344;2023-04-27T10:27:37;14.60;49.20
2825;DHT22;1420;51.324;12.344;2023-04-27T10:30:07;14.80;48.30
2825;DHT22;1420;51.324;12.344;2023-04-27T10:32:25;13.90;49.70
2825;DHT22;1420;51.324;12.344;2023-04-27T10:35:01;13.00;49.00
2825;DHT22;1420;51.324;12.344;2023-04-27T10:37:19;12.70;50.90
2825;DHT22;1420;51.324;12.344;2023-04-27T10:39:47;12.40;52.60
2825;DHT22;1420;51.324;12.344;2023-04-27T10:42:24;12.20;54.20
2825;DHT22;1420;51.324;12.344;2023-04-27T10:44:41;11.90;54.80
2825;DHT22;1420;51.324;12.344;2023-04-27T10:47:13;12.20;54.40
2825;DHT22;1420;51.324;12.344;2023-04-27T10:49:39;12.00;53.70
2825;DHT22;1420;51.324;12.344;2023-04-27T10:52:07;12.00;54.80
2825;DHT22;1420;51.324;12.344;2023-04-27T10:54:34;12.20;55.90
2825;DHT22;1420;51.324;12.344;2023-04-27T10:57:06;12.20;55.40
2825;DHT22;1420;51.324;12.344;2023-04-27T10:59:33;12.20;55.40
2825;DHT22;1420;51.324;12.344;2023-04-27T11:02:01;12.60;53.10
2825;DHT22;1420;51.324;12.344;2023-04-27T11:04:38;12.70;53.90
2825;DHT22;1420;51.324;12.344;2023-04-27T11:07:05;12.70;53.80
2825;DHT22;1420;51.324;12.344;2023-04-27T11:09:32;13.00;52.10
2825;DHT22;1420;51.324;12.344;2023-04-27T11:11:59;13.40;53.20
2825;DHT22;1420;51.324;12.344;2023-04-27T11:14:27;13.10;51.40
2825;DHT22;1420;51.324;12.344;2023-04-27T11:16:54;13.10;51.20
2825;DHT22;1420;51.324;12.344;2023-04-27T11:19:22;12.90;51.10
2825;DHT22;1420;51.324;12.344;2023-04-27T11:21:50;12.80;51.10
2825;DHT22;1420;51.324;12.344;2023-04-27T11:24:17;13.10;51.40
2825;DHT22;1420;51.324;12.344;2023-04-27T11:26:50;13.60;51.70
2825;DHT22;1420;51.324;12.344;2023-04-27T11:29:11;13.30;49.60
2825;DHT22;1420;51.324;12.344;2023-04-27T11:31:41;13.50;49.80
2825;DHT22;1420;51.324;12.344;2023-04-27T11:34:08;14.10;49.00
2825;DHT22;1420;51.324;12.344;2023-04-27T11:36:35;14.50;48.70
2825;DHT22;1420;51.324;12.344;2023-04-27T11:39:02;14.50;50.30
2825;DHT22;1420;51.324;12.344;2023-04-27T11:41:34;13.90;47.40
2825;DHT22;1420;51.324;12.344;2023-04-27T11:44:04;12.90;49.20
2825;DHT22;1420;51.324;12.344;2023-04-27T11:46:31;12.80;49.10
2825;DHT22;1420;51.324;12.344;2023-04-27T11:49:00;12.90;48.30
2825;DHT22;1420;51.324;12.344;2023-04-27T11:51:28;12.90;48.10
2825;DHT22;1420;51.324;12.344;2023-04-27T11:53:55;12.90;48.10
2825;DHT22;1420;51.324;12.344;2023-04-27T11:56:22;13.20;48.20
2825;DHT22;1420;51.324;12.344;2023-04-27T11:58:50;13.40;48.00
2825;DHT22;1420;51.324;12.344;2023-04-27T12:01:17;13.40;48.70
2825;DHT22;1420;51.324;12.344;2023-04-27T12:03:44;13.00;49.60
2825;DHT22;1420;51.324;12.344;2023-04-27T12:06:11;12.70;48.70
2825;DHT22;1420;51.324;12.344;2023-04-27T12:08:38;12.50;48.70
2825;DHT22;1420;51.324;12.344;2023-04-27T12:11:06;12.20;48.90
2825;DHT22;1420;51.324;12.344;2023-04-27T12:13:33;12.00;50.20
2825;DHT22;1420;51.324;12.344;2023-04-27T12:16:00;11.90;50.10
2825;DHT22;1420;51.324;12.344;2023-04-27T12:18:27;12.10;49.70
2825;DHT22;1420;51.324;12.344;2023-04-27T12:20:55;12.50;49.10
2825;DHT22;1420;51.324;12.344;2023-04-27T12:23:23;12.70;48.60
2825;DHT22;1420;51.324;12.344;2023-04-27T12:25:50;12.60;48.50
2825;DHT22;1420;51.324;12.344;2023-04-27T12:28:17;12.70;48.30
2825;DHT22;1420;51.324;12.344;2023-04-27T12:30:44;12.70;48.40
2825;DHT22;1420;51.324;12.344;2023-04-27T12:33:11;13.10;47.60
2825;DHT22;1420;51.324;12.344;2023-04-27T12:35:39;13.10;47.50
2825;DHT22;1420;51.324;12.344;2023-04-27T12:38:07;13.90;46.30
2825;DHT22;1420;51.324;12.344;2023-04-27T12:40:34;13.80;46.30
2825;DHT22;1420;51.324;12.344;2023-04-27T12:43:02;14.20;45.20
2825;DHT22;1420;51.324;12.344;2023-04-27T12:45:29;14.20;45.20
2825;DHT22;1420;51.324;12.344;2023-04-27T12:47:56;13.90;45.60
2825;DHT22;1420;51.324;12.344;2023-04-27T12:50:24;13.80;46.90
2825;DHT22;1420;51.324;12.344;2023-04-27T12:52:51;13.50;45.10
2825;DHT22;1420;51.324;12.344;2023-04-27T12:55:18;12.90;46.70
2825;DHT22;1420;51.324;12.344;2023-04-27T12:57:45;13.40;47.40
2825;DHT22;1420;51.324;12.344;2023-04-27T13:00:13;13.20;44.80
2825;DHT22;1420;51.324;12.344;2023-04-27T13:02:41;13.10;47.20
2825;DHT22;1420;51.324;12.344;2023-04-27T13:05:08;13.10;47.10
2825;DHT22;1420;51.324;12.344;2023-04-27T13:07:36;12.90;47.00
2825;DHT22;1420;51.324;12.344;2023-04-27T13:10:04;12.80;47.00
2825;DHT22;1420;51.324;12.344;2023-04-27T13:12:31;13.30;46.90
2825;DHT22;1420;51.324;12.344;2023-04-27T13:14:58;13.70;46.40
2825;DHT22;1420;51.324;12.344;2023-04-27T13:17:26;13.60;45.30
2825;DHT22;1420;51.324;12.344;2023-04-27T13:19:54;13.80;44.80
2825;DHT22;1420;51.324;12.344;2023-04-27T13:22:21;13.80;44.70
2825;DHT22;1420;51.324;12.344;2023-04-27T13:24:49;13.60;44.80
2825;DHT22;1420;51.324;12.344;2023-04-27T13:27:16;13.60;44.80
2825;DHT22;1420;51.324;12.344;2023-04-27T13:29:43;13.40;44.30
2825;DHT22;1420;51.324;12.344;2023-04-27T13:32:10;13.40;44.60
2825;DHT22;1420;51.324;12.344;2023-04-27T13:34:38;12.50;44.70
2825;DHT22;1420;51.324;12.344;2023-04-27T13:37:06;13.10;44.50
2825;DHT22;1420;51.324;12.344;2023-04-27T13:39:33;13.00;44.40
2825;DHT22;1420;51.324;12.344;2023-04-27T13:42:00;13.20;44.80
2825;DHT22;1420;51.324;12.344;2023-04-27T13:44:27;13.20;44.10
2825;DHT22;1420;51.324;12.344;2023-04-27T13:46:55;13.10;43.30
2825;DHT22;1420;51.324;12.344;2023-04-27T13:49:22;13.10;44.10
2825;DHT22;1420;51.324;12.344;2023-04-27T13:51:49;13.30;43.20
2825;DHT22;1420;51.324;12.344;2023-04-27T13:54:16;13.70;42.60
2825;DHT22;1420;51.324;12.344;2023-04-27T13:56:44;13.50;42.70
2825;DHT22;1420;51.324;12.344;2023-04-27T13:59:11;13.10;42.90
2825;DHT22;1420;51.324;12.344;2023-04-27T14:01:38;13.10;44.30
2825;DHT22;1420;51.324;12.344;2023-04-27T14:04:05;13.50;45.70
2825;DHT22;1420;51.324;12.344;2023-04-27T14:06:32;13.90;46.30
2825;DHT22;1420;51.324;12.344;2023-04-27T14:09:00;13.30;43.30
2825;DHT22;1420;51.324;12.344;2023-04-27T14:11:27;12.90;44.50
2825;DHT22;1420;51.324;12.344;2023-04-27T14:13:54;12.70;45.40
2825;DHT22;1420;51.324;12.344;2023-04-27T14:16:21;12.70;44.60
2825;DHT22;1420;51.324;12.344;2023-04-27T14:18:49;12.60;44.40
2825;DHT22;1420;51.324;12.344;2023-04-27T14:21:17;12.50;44.30
2825;DHT22;1420;51.324;12.344;2023-04-27T14:23:44;12.50;44.00
2825;DHT22;1420;51.324;12.344;2023-04-27T14:26:11;12.50;45.30
2825;DHT22;1420;51.324;12.344;2023-04-27T14:28:39;12.40;44.70
2825;DHT22;1420;51.324;12.344;2023-04-27T14:31:06;12.80;45.50
2825;DHT22;1420;51.324;12.344;2023-04-27T14:33:37;12.70;45.50
2825;DHT22;1420;51.324;12.344;2023-04-27T14:36:04;12.40;45.40
2825;DHT22;1420;51.324;12.344;2023-04-27T14:38:32;12.80;44.60
2825;DHT22;1420;51.324;12.344;2023-04-27T14:40:59;12.80;44.60
2825;DHT22;1420;51.324;12.344;2023-04-27T14:43:26;12.90;44.70
2825;DHT22;1420;51.324;12.344;2023-04-27T14:45:54;13.20;44.30
2825;DHT22;1420;51.324;12.344;2023-04-27T14:48:22;13.20;43.60
2825;DHT22;1420;51.324;12.344;2023-04-27T14:50:49;13.30;44.00
2825;DHT22;1420;51.324;12.344;2023-04-27T14:53:16;13.40;44.00
2825;DHT22;1420;51.324;12.344;2023-04-27T14:55:43;13.00;44.10
2825;DHT22;1420;51.324;12.344;2023-04-27T14:58:11;13.10;44.30
2825;DHT22;1420;51.324;12.344;2023-04-27T15:00:38;12.80;43.60
2825;DHT22;1420;51.324;12.344;2023-04-27T15:03:05;12.80;44.80
2825;DHT22;1420;51.324;12.344;2023-04-27T15:05:32;13.00;44.00
2825;DHT22;1420;51.324;12.344;2023-04-27T15:08:00;12.80;43.40
2825;DHT22;1420;51.324;12.344;2023-04-27T15:10:27;12.60;44.20
2825;DHT22;1420;51.324;12.344;2023-04-27T15:12:54;12.80;43.10
2825;DHT22;1420;51.324;12.344;2023-04-27T15:15:21;12.60;41.70
2825;DHT22;1420;51.324;12.344;2023-04-27T15:17:49;12.60;43.70
2825;DHT22;1420;51.324;12.344;2023-04-27T15:20:17;12.20;45.00
2825;DHT22;1420;51.324;12.344;2023-04-27T15:22:44;12.20;45.00
2825;DHT22;1420;51.324;12.344;2023-04-27T15:25:11;12.40;45.50
2825;DHT22;1420;51.324;12.344;2023-04-27T15:27:38;12.40;45.70
2825;DHT22;1420;51.324;12.344;2023-04-27T15:30:07;12.40;46.50
2825;DHT22;1420;51.324;12.344;2023-04-27T15:32:34;12.40;46.40
2825;DHT22;1420;51.324;12.344;2023-04-27T15:35:02;11.90;47.00
2825;DHT22;1420;51.324;12.344;2023-04-27T15:37:32;11.90;46.90
2825;DHT22;1420;51.324;12.344;2023-04-27T15:39:57;12.10;47.10
2825;DHT22;1420;51.324;12.344;2023-04-27T15:42:24;12.10;46.50
2825;DHT22;1420;51.324;12.344;2023-04-27T15:44:51;12.10;46.90
2825;DHT22;1420;51.324;12.344;2023-04-27T15:47:19;12.50;47.00
2825;DHT22;1420;51.324;12.344;2023-04-27T15:49:46;12.50;46.90
2825;DHT22;1420;51.324;12.344;2023-04-27T15:52:14;12.40;47.20
2825;DHT22;1420;51.324;12.344;2023-04-27T15:54:41;12.40;46.60